AAL5243 KLAX-KPHX
Flight info
| Callsign | AAL5243 |
|---|---|
| Flight time | 1h 1m |
| Altitude | 33000 |
| Route | DOTSS2 CNERY BLH HYDRR1 |
| Aircraft | A20N/M-SDE2E3FGHIRWXY/LB1 |
Departure
| Time | 2026-04-26 04:05 |
|---|---|
| Airport | Los Angeles International Airport (KLAX) |
Arrival
| Time | 2026-04-26 05:06 |
|---|---|
| Airport | Phoenix Sky Harbor International Airport (KPHX) |
| Time | Latitude | Longitude | Altitude | Speed | Heading |
|---|---|---|---|---|---|
| 2026-04-26 03:35 | 33.93965 | -118.40656 | 126 ft | 0 kts | 353° |
| 2026-04-26 03:47 | 33.93962 | -118.40655 | 126 ft | 2 kts | 353° |
| 2026-04-26 03:48 | 33.93943 | -118.40652 | 123 ft | 3 kts | 347° |
| 2026-04-26 03:48 | 33.93924 | -118.40645 | 125 ft | 3 kts | 335° |
| 2026-04-26 03:48 | 33.93908 | -118.40634 | 122 ft | 3 kts | 312° |
| 2026-04-26 03:48 | 33.93899 | -118.40616 | 121 ft | 2 kts | 270° |
| 2026-04-26 03:49 | 33.93899 | -118.40607 | 122 ft | 1 kts | 263° |
| 2026-04-26 03:49 | 33.93899 | -118.40606 | 122 ft | 1 kts | 263° |
| 2026-04-26 03:53 | 33.93897 | -118.40629 | 124 ft | 10 kts | 264° |
| 2026-04-26 03:53 | 33.93870 | -118.40725 | 124 ft | 14 kts | 221° |
| 2026-04-26 03:53 | 33.93809 | -118.40674 | 123 ft | 14 kts | 83° |
| 2026-04-26 03:54 | 33.93822 | -118.40546 | 124 ft | 16 kts | 83° |
| 2026-04-26 03:54 | 33.93837 | -118.40401 | 125 ft | 18 kts | 82° |
| 2026-04-26 03:54 | 33.93853 | -118.40241 | 124 ft | 20 kts | 83° |
| 2026-04-26 03:54 | 33.93871 | -118.40065 | 123 ft | 17 kts | 81° |
| 2026-04-26 03:55 | 33.93884 | -118.39941 | 121 ft | 15 kts | 82° |
| 2026-04-26 03:55 | 33.93898 | -118.39805 | 123 ft | 17 kts | 83° |
| 2026-04-26 03:55 | 33.93914 | -118.39653 | 124 ft | 19 kts | 82° |
| 2026-04-26 03:55 | 33.93931 | -118.39484 | 126 ft | 21 kts | 83° |
| 2026-04-26 03:56 | 33.93950 | -118.39299 | 126 ft | 23 kts | 82° |
| 2026-04-26 03:56 | 33.94019 | -118.39224 | 124 ft | 7 kts | 355° |
| 2026-04-26 03:56 | 33.94069 | -118.39253 | 124 ft | 12 kts | 345° |
| 2026-04-26 03:56 | 33.94117 | -118.39211 | 126 ft | 0 kts | 114° |
| 2026-04-26 03:59 | 33.94117 | -118.39210 | 126 ft | 1 kts | 114° |
| 2026-04-26 03:59 | 33.94076 | -118.39129 | 123 ft | 20 kts | 116° |
| 2026-04-26 03:59 | 33.94016 | -118.39014 | 124 ft | 16 kts | 133° |
| 2026-04-26 03:59 | 33.93994 | -118.38881 | 126 ft | 18 kts | 89° |
| 2026-04-26 04:00 | 33.94008 | -118.38726 | 124 ft | 20 kts | 83° |
| 2026-04-26 04:00 | 33.94026 | -118.38548 | 122 ft | 23 kts | 83° |
| 2026-04-26 04:00 | 33.94044 | -118.38386 | 125 ft | 20 kts | 83° |
| 2026-04-26 04:00 | 33.94060 | -118.38215 | 126 ft | 22 kts | 83° |
| 2026-04-26 04:01 | 33.94073 | -118.38086 | 126 ft | 7 kts | 82° |
| 2026-04-26 04:01 | 33.94074 | -118.38023 | 126 ft | 0 kts | 112° |
| 2026-04-26 04:02 | 33.94059 | -118.38007 | 117 ft | 8 kts | 147° |
| 2026-04-26 04:02 | 33.93998 | -118.38000 | 122 ft | 9 kts | 210° |
| 2026-04-26 04:02 | 33.93984 | -118.38045 | 126 ft | 0 kts | 262° |
| 2026-04-26 04:04 | 33.93983 | -118.38052 | 126 ft | 6 kts | 262° |
| 2026-04-26 04:04 | 33.93948 | -118.38398 | 126 ft | 76 kts | 263° |
| 2026-04-26 04:04 | 33.93857 | -118.39268 | 126 ft | 130 kts | 263° |
| 2026-04-26 04:05 | 33.93733 | -118.40499 | 313 ft | 155 kts | 263° |
| 2026-04-26 04:05 | 33.93600 | -118.41796 | 915 ft | 159 kts | 263° |
| 2026-04-26 04:05 | 33.93465 | -118.43179 | 1198 ft | 185 kts | 262° |
| 2026-04-26 04:05 | 33.93289 | -118.44882 | 1218 ft | 224 kts | 261° |
| 2026-04-26 04:06 | 33.92657 | -118.46664 | 1767 ft | 243 kts | 234° |
| 2026-04-26 04:06 | 33.91600 | -118.48277 | 2689 ft | 247 kts | 233° |
| 2026-04-26 04:06 | 33.90512 | -118.49911 | 3633 ft | 251 kts | 232° |
| 2026-04-26 04:06 | 33.89192 | -118.51325 | 4553 ft | 259 kts | 211° |
| 2026-04-26 04:07 | 33.87446 | -118.51940 | 5447 ft | 269 kts | 186° |
| 2026-04-26 04:07 | 33.85567 | -118.51993 | 6395 ft | 271 kts | 184° |
| 2026-04-26 04:07 | 33.83677 | -118.52005 | 7265 ft | 273 kts | 184° |
| 2026-04-26 04:07 | 33.81797 | -118.52008 | 8128 ft | 275 kts | 185° |
| 2026-04-26 04:08 | 33.79872 | -118.52014 | 8991 ft | 277 kts | 184° |
| 2026-04-26 04:08 | 33.77932 | -118.52024 | 9848 ft | 279 kts | 185° |
| 2026-04-26 04:08 | 33.75963 | -118.52040 | 10376 ft | 293 kts | 185° |
| 2026-04-26 04:08 | 33.73840 | -118.51990 | 10583 ft | 318 kts | 176° |
| 2026-04-26 04:09 | 33.71660 | -118.51210 | 11048 ft | 337 kts | 158° |
| 2026-04-26 04:09 | 33.69720 | -118.49552 | 11689 ft | 350 kts | 139° |
| 2026-04-26 04:09 | 33.68284 | -118.47133 | 12344 ft | 363 kts | 118° |
| 2026-04-26 04:09 | 33.67383 | -118.44305 | 13015 ft | 369 kts | 112° |
| 2026-04-26 04:10 | 33.66519 | -118.41381 | 13692 ft | 373 kts | 112° |
| 2026-04-26 04:10 | 33.65653 | -118.38425 | 14287 ft | 377 kts | 112° |
| 2026-04-26 04:10 | 33.64855 | -118.35403 | 14883 ft | 384 kts | 106° |
| 2026-04-26 04:10 | 33.64470 | -118.32206 | 15465 ft | 391 kts | 95° |
| 2026-04-26 04:11 | 33.64458 | -118.28912 | 16041 ft | 396 kts | 91° |
| 2026-04-26 04:11 | 33.64468 | -118.25597 | 16616 ft | 400 kts | 91° |
| 2026-04-26 04:11 | 33.64471 | -118.22251 | 17193 ft | 404 kts | 91° |
| 2026-04-26 04:11 | 33.64471 | -118.18856 | 17771 ft | 408 kts | 91° |
| 2026-04-26 04:12 | 33.64468 | -118.15437 | 18337 ft | 412 kts | 91° |
| 2026-04-26 04:12 | 33.64466 | -118.11977 | 18853 ft | 416 kts | 92° |
| 2026-04-26 04:12 | 33.64464 | -118.08530 | 19357 ft | 421 kts | 92° |
| 2026-04-26 04:12 | 33.64459 | -118.05006 | 19866 ft | 425 kts | 93° |
| 2026-04-26 04:13 | 33.64453 | -118.01440 | 20379 ft | 429 kts | 94° |
| 2026-04-26 04:13 | 33.64447 | -117.97825 | 20868 ft | 434 kts | 94° |
| 2026-04-26 04:13 | 33.64444 | -117.94192 | 21349 ft | 439 kts | 94° |
| 2026-04-26 04:13 | 33.64438 | -117.90489 | 21775 ft | 444 kts | 94° |
| 2026-04-26 04:14 | 33.64427 | -117.86761 | 22240 ft | 449 kts | 95° |
| 2026-04-26 04:14 | 33.64415 | -117.83001 | 22700 ft | 453 kts | 96° |
| 2026-04-26 04:14 | 33.64163 | -117.79243 | 23164 ft | 451 kts | 105° |
| 2026-04-26 04:14 | 33.63461 | -117.75613 | 23625 ft | 448 kts | 114° |
| 2026-04-26 04:15 | 33.62563 | -117.72014 | 24028 ft | 452 kts | 114° |
| 2026-04-26 04:15 | 33.61660 | -117.68390 | 24422 ft | 455 kts | 114° |
| 2026-04-26 04:15 | 33.60755 | -117.64735 | 24814 ft | 459 kts | 114° |
| 2026-04-26 04:15 | 33.60142 | -117.62246 | 25071 ft | 461 kts | 114° |
| 2026-04-26 04:16 | 33.59243 | -117.58592 | 25454 ft | 464 kts | 114° |
| 2026-04-26 04:16 | 33.58322 | -117.54854 | 25818 ft | 467 kts | 114° |
| 2026-04-26 04:16 | 33.57397 | -117.51114 | 26212 ft | 470 kts | 114° |
| 2026-04-26 04:16 | 33.56464 | -117.47340 | 26545 ft | 473 kts | 114° |
| 2026-04-26 04:17 | 33.55527 | -117.43550 | 26923 ft | 475 kts | 114° |
| 2026-04-26 04:17 | 33.54583 | -117.39741 | 27269 ft | 478 kts | 114° |
| 2026-04-26 04:17 | 33.53629 | -117.35910 | 27559 ft | 482 kts | 115° |
| 2026-04-26 04:17 | 33.52670 | -117.32080 | 27830 ft | 486 kts | 115° |
| 2026-04-26 04:18 | 33.51695 | -117.28189 | 28166 ft | 489 kts | 115° |
| 2026-04-26 04:18 | 33.50831 | -117.24208 | 28507 ft | 499 kts | 108° |
| 2026-04-26 04:18 | 33.50429 | -117.19979 | 28837 ft | 511 kts | 97° |
| 2026-04-26 04:18 | 33.50371 | -117.15761 | 29151 ft | 514 kts | 97° |
| 2026-04-26 04:19 | 33.50320 | -117.11478 | 29517 ft | 516 kts | 97° |
| 2026-04-26 04:19 | 33.50266 | -117.07134 | 29856 ft | 519 kts | 97° |
| 2026-04-26 04:19 | 33.50209 | -117.02792 | 30166 ft | 522 kts | 97° |
| 2026-04-26 04:19 | 33.50149 | -116.98425 | 30433 ft | 525 kts | 97° |
| 2026-04-26 04:20 | 33.50088 | -116.94097 | 30801 ft | 524 kts | 97° |
| 2026-04-26 04:20 | 33.50025 | -116.89726 | 31196 ft | 524 kts | 97° |
| 2026-04-26 04:20 | 33.49960 | -116.85358 | 31488 ft | 525 kts | 97° |
| 2026-04-26 04:20 | 33.49892 | -116.80975 | 31825 ft | 526 kts | 98° |
| 2026-04-26 04:21 | 33.49819 | -116.76585 | 32197 ft | 526 kts | 98° |
| 2026-04-26 04:21 | 33.49746 | -116.72194 | 32561 ft | 526 kts | 98° |
| 2026-04-26 04:21 | 33.49671 | -116.67801 | 32853 ft | 527 kts | 98° |
| 2026-04-26 04:22 | 33.49521 | -116.59070 | 32890 ft | 521 kts | 98° |
| 2026-04-26 04:22 | 33.49372 | -116.50439 | 32902 ft | 519 kts | 98° |
| 2026-04-26 04:23 | 33.49209 | -116.41800 | 32867 ft | 517 kts | 98° |
| 2026-04-26 04:23 | 33.49069 | -116.33227 | 32846 ft | 517 kts | 98° |
| 2026-04-26 04:24 | 33.48949 | -116.24610 | 32832 ft | 518 kts | 98° |
| 2026-04-26 04:24 | 33.48821 | -116.15970 | 32837 ft | 519 kts | 98° |
| 2026-04-26 04:25 | 33.48712 | -116.07316 | 32826 ft | 522 kts | 95° |
| 2026-04-26 04:25 | 33.49983 | -115.98701 | 32816 ft | 536 kts | 75° |
| 2026-04-26 04:26 | 33.52467 | -115.90256 | 32807 ft | 538 kts | 73° |
| 2026-04-26 04:26 | 33.54952 | -115.81764 | 32793 ft | 539 kts | 74° |
| 2026-04-26 04:27 | 33.57425 | -115.73272 | 32783 ft | 540 kts | 74° |
| 2026-04-26 04:27 | 33.59880 | -115.64802 | 32785 ft | 540 kts | 74° |
| 2026-04-26 04:28 | 33.62215 | -115.56243 | 32806 ft | 534 kts | 84° |
| 2026-04-26 04:28 | 33.62496 | -115.51877 | 32815 ft | 520 kts | 99° |
| 2026-04-26 04:28 | 33.62382 | -115.47545 | 32814 ft | 519 kts | 99° |
| 2026-04-26 04:29 | 33.62077 | -115.38943 | 32802 ft | 518 kts | 100° |
| 2026-04-26 04:29 | 33.61725 | -115.30309 | 32796 ft | 517 kts | 100° |
| 2026-04-26 04:30 | 33.61390 | -115.21661 | 32804 ft | 517 kts | 100° |
| 2026-04-26 04:30 | 33.61067 | -115.13084 | 32806 ft | 517 kts | 100° |
| 2026-04-26 04:31 | 33.60736 | -115.04466 | 32812 ft | 516 kts | 100° |
| 2026-04-26 04:31 | 33.60406 | -114.95921 | 32758 ft | 515 kts | 100° |
| 2026-04-26 04:32 | 33.60070 | -114.87336 | 32782 ft | 515 kts | 100° |
| 2026-04-26 04:32 | 33.59715 | -114.78731 | 32791 ft | 515 kts | 101° |
| 2026-04-26 04:32 | 33.59272 | -114.74513 | 32676 ft | 502 kts | 111° |
| 2026-04-26 04:33 | 33.58520 | -114.70508 | 32265 ft | 495 kts | 112° |
| 2026-04-26 04:33 | 33.57752 | -114.66489 | 31755 ft | 492 kts | 112° |
| 2026-04-26 04:33 | 33.56982 | -114.62506 | 31263 ft | 488 kts | 112° |
| 2026-04-26 04:33 | 33.56214 | -114.58551 | 30761 ft | 485 kts | 112° |
| 2026-04-26 04:34 | 33.55445 | -114.54611 | 30289 ft | 483 kts | 112° |
| 2026-04-26 04:34 | 33.54688 | -114.50742 | 29787 ft | 480 kts | 112° |
| 2026-04-26 04:34 | 33.53925 | -114.46861 | 29282 ft | 476 kts | 112° |
| 2026-04-26 04:34 | 33.53168 | -114.43003 | 28816 ft | 472 kts | 112° |
| 2026-04-26 04:35 | 33.52419 | -114.39187 | 28356 ft | 468 kts | 112° |
| 2026-04-26 04:35 | 33.51682 | -114.35420 | 27896 ft | 462 kts | 112° |
| 2026-04-26 04:35 | 33.50950 | -114.31689 | 27464 ft | 458 kts | 112° |
| 2026-04-26 04:35 | 33.50215 | -114.27977 | 27051 ft | 455 kts | 112° |
| 2026-04-26 04:36 | 33.49485 | -114.24306 | 26636 ft | 452 kts | 112° |
| 2026-04-26 04:36 | 33.48761 | -114.20664 | 26230 ft | 449 kts | 112° |
| 2026-04-26 04:36 | 33.48038 | -114.17027 | 25824 ft | 447 kts | 112° |
| 2026-04-26 04:36 | 33.47319 | -114.13409 | 25406 ft | 445 kts | 112° |
| 2026-04-26 04:37 | 33.46612 | -114.09853 | 25000 ft | 444 kts | 112° |
| 2026-04-26 04:37 | 33.45894 | -114.06231 | 24763 ft | 436 kts | 112° |
| 2026-04-26 04:37 | 33.45211 | -114.02780 | 24803 ft | 430 kts | 112° |
| 2026-04-26 04:37 | 33.44512 | -113.99297 | 24777 ft | 429 kts | 112° |
| 2026-04-26 04:38 | 33.43808 | -113.95822 | 24300 ft | 431 kts | 112° |
| 2026-04-26 04:38 | 33.43105 | -113.92353 | 24054 ft | 425 kts | 112° |
| 2026-04-26 04:38 | 33.42411 | -113.88912 | 23908 ft | 424 kts | 112° |
| 2026-04-26 04:38 | 33.41721 | -113.85482 | 23746 ft | 422 kts | 112° |
| 2026-04-26 04:39 | 33.41043 | -113.82107 | 23595 ft | 421 kts | 112° |
| 2026-04-26 04:39 | 33.40355 | -113.78694 | 23435 ft | 420 kts | 112° |
| 2026-04-26 04:39 | 33.39673 | -113.75307 | 23262 ft | 418 kts | 112° |
| 2026-04-26 04:39 | 33.38990 | -113.71925 | 23068 ft | 417 kts | 112° |
| 2026-04-26 04:40 | 33.38307 | -113.68544 | 22946 ft | 417 kts | 112° |
| 2026-04-26 04:40 | 33.37621 | -113.65163 | 22781 ft | 417 kts | 112° |
| 2026-04-26 04:40 | 33.36944 | -113.61831 | 22621 ft | 416 kts | 112° |
| 2026-04-26 04:40 | 33.36259 | -113.58476 | 22447 ft | 415 kts | 112° |
| 2026-04-26 04:41 | 33.35571 | -113.55124 | 22281 ft | 413 kts | 112° |
| 2026-04-26 04:41 | 33.34887 | -113.51793 | 22116 ft | 411 kts | 112° |
| 2026-04-26 04:41 | 33.34207 | -113.48476 | 21948 ft | 410 kts | 112° |
| 2026-04-26 04:41 | 33.33542 | -113.45197 | 21772 ft | 409 kts | 111° |
| 2026-04-26 04:42 | 33.32920 | -113.41880 | 21441 ft | 408 kts | 109° |
| 2026-04-26 04:42 | 33.32351 | -113.38560 | 21190 ft | 406 kts | 109° |
| 2026-04-26 04:42 | 33.31808 | -113.35258 | 20933 ft | 404 kts | 108° |
| 2026-04-26 04:42 | 33.31271 | -113.31980 | 20684 ft | 401 kts | 108° |
| 2026-04-26 04:43 | 33.30724 | -113.28708 | 20431 ft | 399 kts | 109° |
| 2026-04-26 04:43 | 33.30173 | -113.25471 | 20184 ft | 396 kts | 109° |
| 2026-04-26 04:43 | 33.29619 | -113.22246 | 19939 ft | 395 kts | 108° |
| 2026-04-26 04:43 | 33.29107 | -113.19025 | 19691 ft | 393 kts | 107° |
| 2026-04-26 04:44 | 33.28640 | -113.15807 | 19443 ft | 392 kts | 106° |
| 2026-04-26 04:44 | 33.28200 | -113.12632 | 19202 ft | 390 kts | 106° |
| 2026-04-26 04:44 | 33.27763 | -113.09441 | 18948 ft | 387 kts | 105° |
| 2026-04-26 04:44 | 33.27470 | -113.06238 | 18700 ft | 391 kts | 96° |
| 2026-04-26 04:45 | 33.27534 | -113.02963 | 18434 ft | 394 kts | 93° |
| 2026-04-26 04:45 | 33.27626 | -112.99690 | 18154 ft | 392 kts | 93° |
| 2026-04-26 04:45 | 33.27712 | -112.96443 | 17866 ft | 390 kts | 93° |
| 2026-04-26 04:45 | 33.27794 | -112.93207 | 17608 ft | 388 kts | 93° |
| 2026-04-26 04:46 | 33.27870 | -112.90033 | 17352 ft | 386 kts | 93° |
| 2026-04-26 04:46 | 33.27944 | -112.86842 | 17132 ft | 383 kts | 93° |
| 2026-04-26 04:46 | 33.28019 | -112.83700 | 16977 ft | 374 kts | 93° |
| 2026-04-26 04:46 | 33.28132 | -112.80616 | 16677 ft | 370 kts | 90° |
| 2026-04-26 04:47 | 33.28360 | -112.77570 | 16447 ft | 367 kts | 88° |
| 2026-04-26 04:47 | 33.28655 | -112.74557 | 16116 ft | 364 kts | 87° |
| 2026-04-26 04:47 | 33.28978 | -112.71569 | 15760 ft | 361 kts | 86° |
| 2026-04-26 04:47 | 33.29299 | -112.68599 | 15416 ft | 358 kts | 87° |
| 2026-04-26 04:48 | 33.29888 | -112.62730 | 14728 ft | 353 kts | 88° |
| 2026-04-26 04:48 | 33.30161 | -112.59853 | 14389 ft | 351 kts | 88° |
| 2026-04-26 04:48 | 33.30431 | -112.56962 | 14048 ft | 349 kts | 88° |
| 2026-04-26 04:49 | 33.30696 | -112.54090 | 13738 ft | 346 kts | 88° |
| 2026-04-26 04:49 | 33.30958 | -112.51233 | 13358 ft | 344 kts | 88° |
| 2026-04-26 04:49 | 33.31218 | -112.48409 | 13053 ft | 340 kts | 88° |
| 2026-04-26 04:49 | 33.31475 | -112.45606 | 12697 ft | 338 kts | 88° |
| 2026-04-26 04:50 | 33.31728 | -112.42827 | 12416 ft | 334 kts | 88° |
| 2026-04-26 04:50 | 33.31978 | -112.40067 | 12059 ft | 332 kts | 88° |
| 2026-04-26 04:50 | 33.32227 | -112.37343 | 11769 ft | 328 kts | 88° |
| 2026-04-26 04:50 | 33.32474 | -112.34643 | 11465 ft | 325 kts | 88° |
| 2026-04-26 04:51 | 33.32715 | -112.32005 | 11126 ft | 321 kts | 88° |
| 2026-04-26 04:51 | 33.32956 | -112.29368 | 10785 ft | 317 kts | 88° |
| 2026-04-26 04:51 | 33.33193 | -112.26765 | 10475 ft | 314 kts | 88° |
| 2026-04-26 04:51 | 33.33426 | -112.24189 | 10169 ft | 311 kts | 88° |
| 2026-04-26 04:52 | 33.33658 | -112.21611 | 9869 ft | 309 kts | 88° |
| 2026-04-26 04:52 | 33.33888 | -112.19063 | 9548 ft | 307 kts | 88° |
| 2026-04-26 04:52 | 33.34114 | -112.16547 | 9360 ft | 299 kts | 88° |
| 2026-04-26 04:52 | 33.34335 | -112.14114 | 9244 ft | 290 kts | 88° |
| 2026-04-26 04:53 | 33.34550 | -112.11757 | 9121 ft | 280 kts | 89° |
| 2026-04-26 04:53 | 33.34751 | -112.09474 | 9007 ft | 271 kts | 91° |
| 2026-04-26 04:53 | 33.34753 | -112.07252 | 8747 ft | 267 kts | 95° |
| 2026-04-26 04:53 | 33.34725 | -112.05042 | 8456 ft | 265 kts | 95° |
| 2026-04-26 04:54 | 33.34694 | -112.02843 | 8178 ft | 263 kts | 95° |
| 2026-04-26 04:54 | 33.34662 | -112.00681 | 7904 ft | 263 kts | 95° |
| 2026-04-26 04:54 | 33.34631 | -111.98506 | 7626 ft | 261 kts | 95° |
| 2026-04-26 04:54 | 33.34604 | -111.96341 | 7351 ft | 259 kts | 95° |
| 2026-04-26 04:55 | 33.34577 | -111.94187 | 7090 ft | 257 kts | 95° |
| 2026-04-26 04:55 | 33.34569 | -111.92089 | 6993 ft | 246 kts | 93° |
| 2026-04-26 04:55 | 33.34608 | -111.90067 | 6820 ft | 242 kts | 92° |
| 2026-04-26 04:55 | 33.34658 | -111.88076 | 6528 ft | 241 kts | 91° |
| 2026-04-26 04:56 | 33.34709 | -111.86078 | 6237 ft | 240 kts | 91° |
| 2026-04-26 04:56 | 33.34760 | -111.84090 | 5968 ft | 237 kts | 91° |
| 2026-04-26 04:56 | 33.34809 | -111.82153 | 5840 ft | 228 kts | 91° |
| 2026-04-26 04:56 | 33.34855 | -111.80284 | 5668 ft | 222 kts | 91° |
| 2026-04-26 04:57 | 33.34896 | -111.78452 | 5445 ft | 218 kts | 90° |
| 2026-04-26 04:57 | 33.34935 | -111.76646 | 5216 ft | 216 kts | 90° |
| 2026-04-26 04:57 | 33.34972 | -111.74850 | 4918 ft | 217 kts | 90° |
| 2026-04-26 04:57 | 33.35007 | -111.73041 | 4601 ft | 218 kts | 90° |
| 2026-04-26 04:58 | 33.35045 | -111.71224 | 4284 ft | 219 kts | 90° |
| 2026-04-26 04:58 | 33.35083 | -111.69391 | 3912 ft | 223 kts | 90° |
| 2026-04-26 04:58 | 33.35150 | -111.67546 | 3526 ft | 226 kts | 81° |
| 2026-04-26 04:58 | 33.35814 | -111.65851 | 3173 ft | 229 kts | 46° |
| 2026-04-26 04:59 | 33.37132 | -111.64876 | 3040 ft | 218 kts | 13° |
| 2026-04-26 04:59 | 33.38595 | -111.64786 | 3045 ft | 209 kts | 351° |
| 2026-04-26 04:59 | 33.39954 | -111.65321 | 3031 ft | 205 kts | 333° |
| 2026-04-26 04:59 | 33.41165 | -111.66110 | 3061 ft | 189 kts | 330° |
| 2026-04-26 05:00 | 33.42263 | -111.66871 | 3027 ft | 173 kts | 329° |
| 2026-04-26 05:00 | 33.43189 | -111.67685 | 3009 ft | 160 kts | 312° |
| 2026-04-26 05:00 | 33.43777 | -111.68765 | 3022 ft | 156 kts | 291° |
| 2026-04-26 05:00 | 33.44004 | -111.70016 | 3030 ft | 155 kts | 270° |
| 2026-04-26 05:01 | 33.44007 | -111.71383 | 3048 ft | 170 kts | 270° |
| 2026-04-26 05:01 | 33.44014 | -111.72808 | 3032 ft | 172 kts | 270° |
| 2026-04-26 05:01 | 33.44019 | -111.74249 | 3028 ft | 173 kts | 270° |
| 2026-04-26 05:01 | 33.44024 | -111.75683 | 3026 ft | 173 kts | 270° |
| 2026-04-26 05:02 | 33.44029 | -111.77165 | 3033 ft | 186 kts | 270° |
| 2026-04-26 05:02 | 33.44034 | -111.78728 | 3026 ft | 192 kts | 270° |
| 2026-04-26 05:02 | 33.44039 | -111.80327 | 2998 ft | 191 kts | 269° |
| 2026-04-26 05:02 | 33.44044 | -111.81915 | 3014 ft | 189 kts | 269° |
| 2026-04-26 05:03 | 33.44048 | -111.83493 | 3021 ft | 189 kts | 269° |
| 2026-04-26 05:03 | 33.44052 | -111.85072 | 3021 ft | 189 kts | 269° |
| 2026-04-26 05:03 | 33.44056 | -111.86629 | 3016 ft | 189 kts | 269° |
| 2026-04-26 05:03 | 33.44060 | -111.88196 | 2878 ft | 183 kts | 269° |
| 2026-04-26 05:04 | 33.44064 | -111.89633 | 2704 ft | 161 kts | 270° |
| 2026-04-26 05:04 | 33.44067 | -111.90922 | 2491 ft | 149 kts | 270° |
| 2026-04-26 05:04 | 33.44068 | -111.91737 | 2373 ft | 146 kts | 270° |
| 2026-04-26 05:04 | 33.44071 | -111.93331 | 2143 ft | 144 kts | 270° |
| 2026-04-26 05:05 | 33.44078 | -111.94522 | 1982 ft | 142 kts | 271° |
| 2026-04-26 05:05 | 33.44085 | -111.95670 | 1796 ft | 142 kts | 270° |
| 2026-04-26 05:05 | 33.44084 | -111.96441 | 1669 ft | 140 kts | 270° |
| 2026-04-26 05:05 | 33.44079 | -111.97568 | 1462 ft | 140 kts | 270° |
| 2026-04-26 05:06 | 33.44082 | -111.98730 | 1257 ft | 139 kts | 270° |
| 2026-04-26 05:06 | 33.44087 | -111.99842 | 1134 ft | 123 kts | 270° |
| 2026-04-26 05:06 | 33.44083 | -112.00652 | 1129 ft | 73 kts | 270° |
| 2026-04-26 05:06 | 33.44071 | -112.01044 | 1131 ft | 29 kts | 242° |
| 2026-04-26 05:07 | 33.43975 | -112.01046 | 1122 ft | 11 kts | 96° |
| 2026-04-26 05:07 | 33.43974 | -112.01042 | 1122 ft | 0 kts | 96° |
| 2026-04-26 05:08 | 33.43974 | -112.01015 | 1124 ft | 11 kts | 90° |
| 2026-04-26 05:08 | 33.43974 | -112.00905 | 1126 ft | 14 kts | 89° |
| 2026-04-26 05:08 | 33.43975 | -112.00785 | 1125 ft | 10 kts | 90° |
| 2026-04-26 05:09 | 33.43934 | -112.00733 | 1118 ft | 10 kts | 175° |
| 2026-04-26 05:09 | 33.43863 | -112.00735 | 1121 ft | 7 kts | 179° |
| 2026-04-26 05:09 | 33.43817 | -112.00758 | 1120 ft | 8 kts | 249° |
| 2026-04-26 05:09 | 33.43806 | -112.00813 | 1118 ft | 5 kts | 255° |
| 2026-04-26 05:10 | 33.43802 | -112.00829 | 1124 ft | 0 kts | 255° |